| time (UTC) | temp F | wind direction | speed MPH | gust MPH | rain 1hr in | rain 24hr in | rain mn in | humidity % | barometer mb |
| 20260509010520 | 67 | 341 | 3.0 | 14.0 | 0.01 | 0.20 | 0.12 | 80 | 1004.4 |
| 20260509010019 | 67 | 281 | 3.0 | 10.0 | 0.01 | 0.20 | 0.12 | 81 | 1004.5 |
| 20260509005520 | 66 | 276 | 2.0 | 10.0 | 0.01 | 0.20 | 0.12 | 82 | 1004.7 |
| 20260509005034 | 65 | 254 | 5.0 | 12.0 | 0.01 | 0.20 | 0.12 | 81 | 1004.8 |
| 20260509004521 | 65 | 271 | 7.0 | 13.0 | 0.01 | 0.20 | 0.12 | 83 | 1004.9 |
| 20260509004019 | 64 | 259 | 8.0 | 12.0 | 0.01 | 0.20 | 0.12 | 84 | 1005.1 |
| 20260509003519 | 64 | 272 | 4.0 | 13.0 | 0.01 | 0.20 | 0.12 | 84 | 1005.2 |
| 20260509003019 | 64 | 299 | 7.0 | 15.0 | 0.01 | 0.20 | 0.12 | 84 | 1005.3 |
| 20260509002519 | 64 | 255 | 9.0 | 19.0 | 0.01 | 0.20 | 0.12 | 83 | 1005.3 |
| 20260509002020 | 65 | 303 | 9.0 | 19.0 | 0.01 | 0.20 | 0.12 | 80 | 1005.4 |
| 20260509001520 | 67 | 272 | 4.0 | 10.0 | 0.00 | 0.20 | 0.11 | 81 | 1005.4 |
| 20260509001023 | 67 | 296 | 4.0 | 10.0 | 0.00 | 0.20 | 0.11 | 81 | 1005.5 |
| 20260509000518 | 66 | 330 | 3.0 | 9.0 | 0.00 | 0.20 | 0.11 | 82 | 1005.6 |
| 20260509000018 | 65 | 301 | 3.0 | 10.0 | 0.00 | 0.20 | 0.11 | 82 | 1005.7 |
| 20260508235529 | 65 | 268 | 5.0 | 12.0 | 0.00 | 0.20 | 0.11 | 81 | 1005.7 |
| 20260508235021 | 66 | 290 | 5.0 | 12.0 | 0.00 | 0.20 | 0.11 | 81 | 1005.7 |
| 20260508230018 | 63 | 322 | 3.0 | 7.0 | 0.08 | 0.20 | 0.11 | 90 | 1006.3 |
| 20260508230014 | 63 | 316 | 3.0 | 7.0 | 0.08 | 0.20 | 0.11 | 90 | 1006.3 |
| 20260508220010 | 67 | 312 | 4.0 | 6.0 | 0.00 | 0.12 | 0.03 | 85 | 1006.5 |
| 20260508210011 | 64 | 293 | 2.0 | 7.0 | 0.00 | 0.12 | 0.03 | 91 | 1006.7 |
| 20260508200025 | 62 | 353 | 1.0 | 7.0 | 0.00 | 0.12 | 0.03 | 94 | 1006.5 |
| 20260508195517 | 61 | 335 | 1.0 | 4.0 | 0.00 | 0.12 | 0.03 | 94 | 1006.5 |
| 20260508195017 | 61 | 322 | 1.0 | 5.0 | 0.00 | 0.12 | 0.03 | 94 | 1006.4 |
| 20260508194517 | 61 | 322 | 2.0 | 5.0 | 0.00 | 0.12 | 0.03 | 94 | 1006.3 |
| 20260508194017 | 61 | 320 | 0.0 | 3.0 | 0.00 | 0.12 | 0.03 | 94 | 1006.3 |
| 20260508193515 | 61 | 328 | 0.0 | 0.0 | 0.00 | 0.12 | 0.03 | 94 | 1006.3 |
| 20260508193015 | 61 | 328 | 0.0 | 0.0 | 0.00 | 0.12 | 0.03 | 94 | 1006.3 |
| 20260508192515 | 60 | 328 | 0.0 | 0.0 | 0.00 | 0.12 | 0.03 | 94 | 1006.3 |
| 20260508192026 | 60 | 327 | 0.0 | 0.0 | 0.00 | 0.12 | 0.03 | 94 | 1006.4 |
| 20260508191517 | 60 | 313 | 0.0 | 0.0 | 0.00 | 0.12 | 0.03 | 94 | 1006.3 |
| 20260508191015 | 61 | 313 | 0.0 | 0.0 | 0.00 | 0.12 | 0.03 | 94 | 1006.3 |
| 20260508190516 | 61 | 311 | 0.0 | 0.0 | 0.00 | 0.12 | 0.03 | 94 | 1006.3 |
| 20260508190017 | 61 | 311 | 0.0 | 0.0 | 0.00 | 0.12 | 0.03 | 94 | 1006.2 |
| 20260508185515 | 61 | 310 | 0.0 | 0.0 | 0.00 | 0.12 | 0.03 | 94 | 1006.1 |
| 20260508185017 | 61 | 310 | 0.0 | 0.0 | 0.00 | 0.12 | 0.03 | 94 | 1006.1 |
| 20260508184528 | 61 | 310 | 0.0 | 0.0 | 0.00 | 0.12 | 0.03 | 94 | 1006.1 |
| 20260508184015 | 61 | 310 | 0.0 | 3.0 | 0.00 | 0.12 | 0.03 | 94 | 1006.1 |
| 20260508183515 | 61 | 310 | 0.0 | 4.0 | 0.00 | 0.12 | 0.03 | 94 | 1006.1 |
| 20260508183015 | 61 | 312 | 2.0 | 4.0 | 0.00 | 0.12 | 0.03 | 94 | 1006.1 |
| 20260508182516 | 60 | 300 | 1.0 | 4.0 | 0.00 | 0.12 | 0.03 | 94 | 1006.1 |
| 20260508182017 | 60 | 301 | 0.0 | 4.0 | 0.00 | 0.12 | 0.03 | 94 | 1006.1 |
| 20260508181528 | 60 | 286 | 0.0 | 0.0 | 0.00 | 0.12 | 0.03 | 94 | 1006.2 |
| 20260508181016 | 60 | 299 | 0.0 | 0.0 | 0.00 | 0.12 | 0.03 | 94 | 1006.1 |
| 20260508180516 | 60 | 299 | 0.0 | 0.0 | 0.00 | 0.12 | 0.03 | 94 | 1006.1 |
| 20260508180015 | 60 | 299 | 0.0 | 0.0 | 0.00 | 0.12 | 0.03 | 94 | 1006.1 |
| 20260508175515 | 60 | 299 | 0.0 | 0.0 | 0.00 | 0.12 | 0.03 | 93 | 1006.0 |
| 20260508175019 | 60 | 299 | 0.0 | 0.0 | 0.00 | 0.12 | 0.03 | 94 | 1005.9 |
| 20260508174527 | 60 | 299 | 0.0 | 0.0 | 0.00 | 0.12 | 0.03 | 93 | 1006.0 |
| 20260508174026 | 60 | 299 | 0.0 | 0.0 | 0.00 | 0.12 | 0.03 | 93 | 1005.9 |
| 20260508173515 | 61 | 299 | 0.0 | 0.0 | 0.00 | 0.12 | 0.03 | 93 | 1005.9 |
| 20260508173016 | 61 | 301 | 0.0 | 0.0 | 0.00 | 0.12 | 0.03 | 93 | 1005.9 |
| 20260508172516 | 61 | 301 | 0.0 | 3.0 | 0.00 | 0.12 | 0.03 | 93 | 1005.9 |
| 20260508172027 | 61 | 302 | 1.0 | 3.0 | 0.00 | 0.12 | 0.03 | 93 | 1005.9 |
| 20260508171528 | 61 | 303 | 1.0 | 3.0 | 0.00 | 0.12 | 0.03 | 93 | 1005.9 |
| 20260508171027 | 60 | 303 | 0.0 | 2.0 | 0.00 | 0.12 | 0.03 | 93 | 1005.9 |
| 20260508170516 | 61 | 303 | 1.0 | 2.0 | 0.00 | 0.12 | 0.03 | 93 | 1006.0 |
| 20260508170016 | 61 | 304 | 1.0 | 4.0 | 0.00 | 0.12 | 0.03 | 93 | 1005.9 |
| 20260508165516 | 61 | 328 | 1.0 | 4.0 | 0.00 | 0.12 | 0.03 | 93 | 1005.9 |
| 20260508165018 | 61 | 293 | 1.0 | 3.0 | 0.00 | 0.12 | 0.03 | 93 | 1005.9 |
| 20260508164517 | 61 | 330 | 0.0 | 4.0 | 0.00 | 0.12 | 0.03 | 93 | 1005.9 |
| 20260508164018 | 61 | 326 | 1.0 | 4.0 | 0.00 | 0.12 | 0.03 | 93 | 1005.8 |
| 20260508163517 | 61 | 317 | 0.0 | 4.0 | 0.00 | 0.12 | 0.03 | 93 | 1005.8 |
| 20260508163016 | 61 | 317 | 0.0 | 5.0 | 0.00 | 0.12 | 0.03 | 93 | 1005.9 |
| 20260508162516 | 61 | 318 | 1.0 | 5.0 | 0.00 | 0.12 | 0.03 | 93 | 1005.9 |
| 20260508162027 | 61 | 337 | 1.0 | 5.0 | 0.00 | 0.12 | 0.03 | 93 | 1005.9 |
| 20260508161530 | 61 | 339 | 1.0 | 5.0 | 0.00 | 0.12 | 0.03 | 93 | 1006.0 |
| 20260508161028 | 61 | 328 | 1.0 | 4.0 | 0.00 | 0.12 | 0.03 | 93 | 1006.0 |
| 20260508160518 | 61 | 326 | 2.0 | 4.0 | 0.00 | 0.12 | 0.03 | 93 | 1006.0 |
| 20260508160016 | 60 | 335 | 2.0 | 5.0 | 0.00 | 0.12 | 0.03 | 93 | 1006.1 |
| 20260508155516 | 60 | 298 | 0.0 | 6.0 | 0.00 | 0.12 | 0.03 | 93 | 1006.1 |
| 20260508155027 | 60 | 292 | 1.0 | 6.0 | 0.00 | 0.12 | 0.03 | 93 | 1006.1 |
| 20260508154518 | 60 | 315 | 1.0 | 3.0 | 0.00 | 0.12 | 0.03 | 93 | 1006.0 |
| 20260508154029 | 60 | 299 | 0.0 | 0.0 | 0.00 | 0.12 | 0.03 | 93 | 1006.1 |
| 20260508153517 | 60 | 313 | 0.0 | 0.0 | 0.00 | 0.12 | 0.03 | 93 | 1006.2 |
| 20260508153018 | 60 | 313 | 0.0 | 0.0 | 0.00 | 0.12 | 0.03 | 93 | 1006.2 |
| 20260508152517 | 60 | 313 | 0.0 | 0.0 | 0.00 | 0.12 | 0.03 | 93 | 1006.2 |
| 20260508152017 | 60 | 312 | 0.0 | 0.0 | 0.00 | 0.12 | 0.03 | 93 | 1006.3 |
| 20260508151528 | 60 | 311 | 0.0 | 0.0 | 0.00 | 0.12 | 0.03 | 93 | 1006.3 |
| 20260508151028 | 60 | 314 | 0.0 | 0.0 | 0.00 | 0.12 | 0.03 | 93 | 1006.4 |
| 20260508150517 | 60 | 314 | 0.0 | 0.0 | 0.00 | 0.12 | 0.03 | 93 | 1006.4 |
| 20260508150017 | 60 | 314 | 0.0 | 0.0 | 0.00 | 0.12 | 0.03 | 93 | 1006.4 |
| 20260508145517 | 60 | 314 | 0.0 | 0.0 | 0.00 | 0.12 | 0.03 | 93 | 1006.5 |
| 20260508145017 | 60 | 313 | 0.0 | 0.0 | 0.00 | 0.12 | 0.03 | 93 | 1006.6 |
| 20260508144517 | 60 | 314 | 0.0 | 0.0 | 0.00 | 0.12 | 0.03 | 93 | 1006.6 |
| 20260508144017 | 60 | 335 | 0.0 | 0.0 | 0.00 | 0.12 | 0.03 | 93 | 1006.6 |
| 20260508143528 | 60 | 331 | 0.0 | 0.0 | 0.00 | 0.12 | 0.03 | 93 | 1006.5 |
| 20260508143019 | 60 | 332 | 0.0 | 0.0 | 0.00 | 0.12 | 0.03 | 93 | 1006.5 |
| 20260508142517 | 60 | 320 | 0.0 | 2.0 | 0.00 | 0.12 | 0.03 | 93 | 1006.6 |
| 20260508142018 | 60 | 317 | 0.0 | 4.0 | 0.00 | 0.12 | 0.03 | 93 | 1006.7 |
| 20260508141518 | 60 | 321 | 1.0 | 5.0 | 0.00 | 0.12 | 0.03 | 93 | 1006.7 |
| 20260508141017 | 60 | 318 | 1.0 | 5.0 | 0.00 | 0.12 | 0.03 | 93 | 1006.8 |
| 20260508140517 | 60 | 310 | 0.0 | 0.0 | 0.00 | 0.12 | 0.03 | 93 | 1006.9 |
| 20260508140017 | 60 | 310 | 0.0 | 0.0 | 0.00 | 0.12 | 0.03 | 93 | 1006.9 |
| 20260508135528 | 60 | 310 | 0.0 | 1.0 | 0.00 | 0.12 | 0.03 | 93 | 1007.0 |
| 20260508135017 | 60 | 310 | 0.0 | 2.0 | 0.01 | 0.12 | 0.03 | 93 | 1007.0 |
| 20260508134517 | 60 | 304 | 1.0 | 3.0 | 0.01 | 0.12 | 0.03 | 93 | 1007.0 |
| 20260508134028 | 60 | 303 | 0.0 | 3.0 | 0.01 | 0.12 | 0.03 | 93 | 1006.9 |
| 20260508133521 | 60 | 302 | 0.0 | 3.0 | 0.01 | 0.12 | 0.03 | 93 | 1007.0 |
| 20260508133028 | 60 | 301 | 1.0 | 3.0 | 0.01 | 0.12 | 0.03 | 93 | 1006.9 |
| 20260508132518 | 60 | 318 | 1.0 | 3.0 | 0.01 | 0.12 | 0.03 | 93 | 1007.1 |
| 20260508132029 | 60 | 320 | 0.0 | 1.0 | 0.02 | 0.12 | 0.03 | 93 | 1007.1 |
| 20260508131530 | 60 | 320 | 0.0 | 3.0 | 0.02 | 0.12 | 0.03 | 92 | 1007.0 |
| 20260508131018 | 60 | 320 | 1.0 | 3.0 | 0.03 | 0.12 | 0.03 | 92 | 1006.8 |
| 20260508130530 | 60 | 306 | 1.0 | 3.0 | 0.03 | 0.12 | 0.03 | 92 | 1006.8 |
| 20260508130019 | 60 | 303 | 0.0 | 3.0 | 0.03 | 0.12 | 0.03 | 92 | 1006.9 |
| 20260508125517 | 60 | 303 | 1.0 | 3.0 | 0.02 | 0.11 | 0.02 | 92 | 1007.0 |
| 20260508125030 | 60 | 303 | 0.0 | 2.0 | 0.02 | 0.11 | 0.02 | 92 | 1007.0 |
| 20260508124517 | 60 | 303 | 0.0 | 2.0 | 0.02 | 0.11 | 0.02 | 92 | 1007.2 |
| 20260508124029 | 60 | 303 | 1.0 | 2.0 | 0.02 | 0.11 | 0.02 | 92 | 1007.2 |
| 20260508123529 | 60 | 303 | 0.0 | 3.0 | 0.02 | 0.11 | 0.02 | 92 | 1007.2 |
| 20260508123018 | 60 | 303 | 0.0 | 4.0 | 0.02 | 0.11 | 0.02 | 92 | 1007.4 |
| 20260508122519 | 60 | 303 | 2.0 | 7.0 | 0.02 | 0.11 | 0.02 | 91 | 1007.4 |
| 20260508122019 | 60 | 327 | 3.0 | 8.0 | 0.02 | 0.10 | 0.02 | 91 | 1007.7 |
| 20260508121519 | 60 | 298 | 3.0 | 11.0 | 0.02 | 0.09 | 0.00 | 91 | 1007.8 |
| 20260508121017 | 60 | 304 | 5.0 | 11.0 | 0.03 | 0.09 | 0.00 | 91 | 1007.8 |
| 20260508120520 | 60 | 289 | 5.0 | 11.0 | 0.04 | 0.09 | 0.00 | 91 | 1007.8 |
| 20260508120021 | 61 | 283 | 5.0 | 11.0 | 0.04 | 0.09 | 0.00 | 91 | 1007.7 |
| 20260508115517 | 61 | 318 | 5.0 | 11.0 | 0.04 | 0.09 | 0.09 | 91 | 1007.7 |
| 20260508115018 | 61 | 337 | 5.0 | 12.0 | 0.04 | 0.09 | 0.09 | 91 | 1007.9 |
| 20260508114518 | 61 | 253 | 6.0 | 12.0 | 0.04 | 0.09 | 0.09 | 91 | 1008.0 |
| 20260508114018 | 61 | 293 | 5.0 | 13.0 | 0.04 | 0.09 | 0.09 | 91 | 1007.7 |
| 20260508113518 | 61 | 328 | 6.0 | 13.0 | 0.04 | 0.09 | 0.09 | 91 | 1007.6 |
| 20260508113022 | 62 | 245 | 5.0 | 17.0 | 0.04 | 0.09 | 0.09 | 91 | 1007.6 |
| 20260508112522 | 62 | 308 | 8.0 | 19.0 | 0.04 | 0.09 | 0.09 | 91 | 1007.7 |
| 20260508112021 | 63 | 289 | 11.0 | 20.0 | 0.03 | 0.08 | 0.08 | 90 | 1007.6 |
| 20260508111520 | 65 | 280 | 9.0 | 15.0 | 0.02 | 0.06 | 0.06 | 91 | 1007.4 |
| 20260508111029 | 66 | 324 | 2.0 | 9.0 | 0.01 | 0.06 | 0.06 | 91 | 1007.0 |
| 20260508110518 | 66 | 297 | 2.0 | 10.0 | 0.00 | 0.05 | 0.05 | 90 | 1007.0 |
| 20260508110018 | 66 | 101 | 4.0 | 10.0 | 0.00 | 0.05 | 0.05 | 91 | 1006.8 |
| 20260508105518 | 66 | 14 | 3.0 | 12.0 | 0.00 | 0.05 | 0.05 | 90 | 1007.0 |
| 20260508105020 | 66 | 328 | 5.0 | 12.0 | 0.00 | 0.05 | 0.05 | 90 | 1007.0 |
| 20260508104518 | 66 | 76 | 5.0 | 10.0 | 0.00 | 0.05 | 0.05 | 90 | 1007.1 |
| 20260508104020 | 66 | 62 | 3.0 | 10.0 | 0.00 | 0.05 | 0.05 | 90 | 1007.2 |
| 20260508103518 | 66 | 93 | 3.0 | 9.0 | 0.00 | 0.05 | 0.05 | 90 | 1007.4 |
| 20260508103018 | 65 | 45 | 1.0 | 8.0 | 0.00 | 0.05 | 0.05 | 90 | 1007.4 |
| 20260508102518 | 65 | 17 | 0.0 | 9.0 | 0.01 | 0.05 | 0.05 | 90 | 1007.4 |
| 20260508102018 | 66 | 6 | 2.0 | 10.0 | 0.01 | 0.05 | 0.05 | 90 | 1007.5 |
| 20260508101519 | 66 | 43 | 2.0 | 10.0 | 0.02 | 0.05 | 0.05 | 90 | 1007.5 |
| 20260508101019 | 65 | 303 | 1.0 | 7.0 | 0.02 | 0.05 | 0.05 | 90 | 1007.6 |
| 20260508100518 | 65 | 349 | 1.0 | 5.0 | 0.02 | 0.05 | 0.05 | 90 | 1007.7 |
| 20260508100020 | 65 | 74 | 0.0 | 6.0 | 0.03 | 0.05 | 0.05 | 90 | 1007.7 |
| 20260508095530 | 65 | 332 | 2.0 | 8.0 | 0.03 | 0.05 | 0.05 | 90 | 1007.8 |
| 20260508095019 | 65 | 19 | 2.0 | 8.0 | 0.03 | 0.05 | 0.05 | 90 | 1007.8 |
| 20260508094531 | 65 | 7 | 0.0 | 7.0 | 0.03 | 0.05 | 0.05 | 90 | 1007.9 |
| 20260508094020 | 65 | 326 | 0.0 | 10.0 | 0.03 | 0.05 | 0.05 | 90 | 1008.0 |
| 20260508093518 | 65 | 341 | 4.0 | 10.0 | 0.03 | 0.05 | 0.05 | 90 | 1007.9 |
| 20260508093031 | 65 | 10 | 3.0 | 8.0 | 0.03 | 0.05 | 0.05 | 89 | 1007.9 |
| 20260508092532 | 65 | 70 | 4.0 | 8.0 | 0.02 | 0.04 | 0.04 | 89 | 1007.9 |
| 20260508092020 | 65 | 66 | 1.0 | 5.0 | 0.02 | 0.03 | 0.03 | 88 | 1008.1 |
| 20260508091521 | 65 | 340 | 0.0 | 5.0 | 0.02 | 0.03 | 0.03 | 88 | 1008.3 |
| 20260508091019 | 66 | 350 | 1.0 | 8.0 | 0.01 | 0.02 | 0.02 | 87 | 1008.4 |
| 20260508090519 | 66 | 329 | 1.0 | 10.0 | 0.01 | 0.02 | 0.02 | 87 | 1008.4 |
| 20260508090020 | 66 | 310 | 3.0 | 10.0 | 0.00 | 0.02 | 0.02 | 86 | 1008.4 |
| 20260508085519 | 66 | 14 | 2.0 | 7.0 | 0.00 | 0.02 | 0.02 | 87 | 1008.4 |
| 20260508085019 | 66 | 301 | 2.0 | 11.0 | 0.00 | 0.02 | 0.02 | 87 | 1008.3 |
| 20260508084530 | 66 | 104 | 4.0 | 11.0 | 0.01 | 0.02 | 0.02 | 87 | 1008.5 |
| 20260508084019 | 66 | 49 | 4.0 | 13.0 | 0.01 | 0.02 | 0.02 | 87 | 1008.5 |
| 20260508083519 | 66 | 67 | 1.0 | 7.0 | 0.01 | 0.02 | 0.02 | 87 | 1008.5 |
| 20260508083020 | 66 | 17 | 2.0 | 7.0 | 0.01 | 0.02 | 0.02 | 87 | 1008.7 |
| 20260508082519 | 66 | 68 | 2.0 | 10.0 | 0.01 | 0.02 | 0.02 | 87 | 1008.6 |
| 20260508082020 | 66 | 311 | 3.0 | 10.0 | 0.01 | 0.02 | 0.02 | 87 | 1008.7 |
| 20260508081522 | 66 | 312 | 2.0 | 9.0 | 0.01 | 0.02 | 0.02 | 88 | 1008.8 |
| 20260508081030 | 66 | 3 | 4.0 | 9.0 | 0.01 | 0.02 | 0.02 | 88 | 1008.7 |
| 20260508080520 | 66 | 57 | 3.0 | 11.0 | 0.01 | 0.02 | 0.02 | 88 | 1008.8 |
| 20260508080035 | 66 | 62 | 5.0 | 11.0 | 0.01 | 0.02 | 0.02 | 88 | 1008.7 |
| 20260508075530 | 66 | 19 | 3.0 | 15.0 | 0.01 | 0.02 | 0.02 | 88 | 1008.7 |
| 20260508075019 | 66 | 51 | 4.0 | 19.0 | 0.01 | 0.02 | 0.02 | 88 | 1008.8 |
| 20260508074515 | 66 | 68 | 5.0 | 19.0 | 0.00 | 0.01 | 0.01 | 88 | 1008.6 |
| 20260508074017 | 66 | 81 | 7.0 | 17.0 | 0.00 | 0.01 | 0.01 | 88 | 1008.6 |
| 20260508073515 | 66 | 81 | 7.0 | 16.0 | 0.00 | 0.01 | 0.01 | 88 | 1009.0 |
| 20260508073015 | 66 | 90 | 4.0 | 10.0 | 0.00 | 0.01 | 0.01 | 89 | 1009.2 |
| 20260508072517 | 66 | 325 | 4.0 | 10.0 | 0.00 | 0.01 | 0.01 | 89 | 1009.7 |
| 20260508072016 | 65 | 324 | 3.0 | 8.0 | 0.00 | 0.01 | 0.01 | 89 | 1009.6 |
| 20260508071516 | 65 | 314 | 2.0 | 9.0 | 0.00 | 0.01 | 0.01 | 89 | 1009.4 |
| 20260508071026 | 66 | 337 | 3.0 | 9.0 | 0.00 | 0.01 | 0.01 | 89 | 1009.4 |
| 20260508070517 | 66 | 299 | 1.0 | 10.0 | 0.00 | 0.01 | 0.01 | 89 | 1009.4 |
| 20260508070015 | 66 | 333 | 1.0 | 10.0 | 0.00 | 0.01 | 0.01 | 89 | 1009.5 |
| 20260508065526 | 66 | 63 | 2.0 | 9.0 | 0.00 | 0.01 | 0.01 | 89 | 1009.4 |
| 20260508065017 | 65 | 338 | 2.0 | 7.0 | 0.00 | 0.01 | 0.01 | 89 | 1009.5 |
| 20260508064516 | 66 | 4 | 2.0 | 11.0 | 0.01 | 0.01 | 0.01 | 89 | 1009.3 |
| 20260508064028 | 66 | 279 | 2.0 | 11.0 | 0.01 | 0.01 | 0.01 | 89 | 1009.2 |
| 20260508063516 | 66 | 62 | 3.0 | 10.0 | 0.01 | 0.01 | 0.01 | 89 | 1009.2 |
| 20260508063017 | 65 | 68 | 2.0 | 10.0 | 0.01 | 0.01 | 0.01 | 89 | 1009.2 |
| 20260508062518 | 65 | 73 | 5.0 | 10.0 | 0.01 | 0.01 | 0.01 | 89 | 1009.1 |
| 20260508062019 | 65 | 65 | 3.0 | 9.0 | 0.01 | 0.01 | 0.01 | 88 | 1009.1 |
| 20260508060034 | 66 | 97 | 3.0 | 11.0 | 0.01 | 0.01 | 0.01 | 87 | 1009.3 |
| 20260508060010 | 66 | 24 | 4.0 | 11.0 | 0.01 | 0.01 | 0.01 | 87 | 1009.3 |
| 20260508050043 | 67 | 320 | 4.0 | 13.0 | 0.00 | 0.00 | 0.00 | 83 | 1010.3 |
| 20260508050028 | 67 | 292 | 4.0 | 13.0 | 0.00 | 0.00 | 0.00 | 83 | 1010.3 |
| 20260508044028 | 67 | 99 | 4.0 | 14.0 | 0.00 | 0.00 | 0.00 | 83 | 1010.6 |
| 20260508043516 | 67 | 27 | 6.0 | 13.0 | 0.00 | 0.00 | 0.00 | 84 | 1010.9 |
| 20260508043017 | 67 | 251 | 3.0 | 12.0 | 0.00 | 0.00 | 0.00 | 84 | 1010.9 |
| 20260508042517 | 67 | 34 | 5.0 | 13.0 | 0.00 | 0.00 | 0.00 | 84 | 1011.0 |
| 20260508042016 | 67 | 59 | 7.0 | 15.0 | 0.00 | 0.00 | 0.00 | 84 | 1010.9 |
| 20260508041520 | 67 | 64 | 7.0 | 15.0 | 0.00 | 0.00 | 0.00 | 83 | 1011.1 |
| 20260508041016 | 67 | 49 | 6.0 | 14.0 | 0.00 | 0.00 | 0.00 | 83 | 1011.1 |
| 20260508040516 | 67 | 42 | 6.0 | 11.0 | 0.00 | 0.00 | 0.00 | 82 | 1011.2 |
| 20260508040016 | 68 | 293 | 4.0 | 11.0 | 0.00 | 0.00 | 0.00 | 82 | 1011.4 |
| 20260508040009 | 68 | 308 | 5.0 | 11.0 | 0.00 | 0.00 | 0.00 | 82 | 1011.4 |
| 20260508030011 | 68 | 336 | 5.0 | 14.0 | 0.00 | 0.00 | 0.00 | 81 | 1011.6 |